アテネ の空港の天気 - METARとTAF

アテネ国際空港 ( LGAV / ATH ) - ギリシャ アテネ
飛行場実況気象(Metar)
観測時間10/16 09:20 EEST (10/16 06:20 UTC)
風向・風速北 5m/s
視程10km以上
天気現象
少しの雲 雲底高度 910m
気温19℃
湿度68%
気圧1021hPa
METARLGAV 160620Z 36009KT 9999 FEW030 19/13 Q1021 NOSIG
過去の天気等 Google飛行場航空写真 Wunderground天気予報

過去48時間のMETAR

飛行場予報(TAF)
発表時間: 10/16 08:00 EEST (10/16 05:00 UTC)
予報対象時間: 16日9時 EEST ~ 17日9時 EEST
風向・風速北 6m/s
視程10km以上
少しの雲 雲底高度 610m
全天の4割程度の雲 雲底高度 2130m
16日12時 EEST ~ 16日14時 EEST に徐々に
風向・風速北北東 8m/s 瞬間風速 13m/s
TAF LGAV 160500Z 1606/1706 01012KT 9999 FEW020 SCT070
BECMG 1609/1611 02015G25KT